createdAt,value
2023-11-19T00:00:15.573Z,7.07
2023-11-19T00:02:43.294Z,7.09
2023-11-19T00:05:13.217Z,7.08
2023-11-19T00:07:43.845Z,7.07
2023-11-19T00:10:14.784Z,7.10
2023-11-19T00:12:46.267Z,7.14
2023-11-19T00:15:13.675Z,7.16
2023-11-19T00:17:46.917Z,7.15
2023-11-19T00:20:14.829Z,7.24
2023-11-19T00:25:12.429Z,7.37
2023-11-19T00:27:39.121Z,7.41
2023-11-19T00:30:07.540Z,7.43
2023-11-19T00:32:34.332Z,7.38
2023-11-19T00:35:01.250Z,7.33
2023-11-19T00:37:27.808Z,7.32
2023-11-19T00:39:54.596Z,7.36
2023-11-19T00:42:21.717Z,7.37
2023-11-19T00:47:18.724Z,7.46
2023-11-19T00:49:45.251Z,7.56
2023-11-19T00:52:11.805Z,7.74
2023-11-19T00:54:38.304Z,7.80
2023-11-19T00:57:05.108Z,7.75
2023-11-19T00:59:31.708Z,7.74
2023-11-19T01:01:58.350Z,7.72
2023-11-19T01:04:25.503Z,7.67
2023-11-19T01:06:52.180Z,7.61
2023-11-19T01:09:18.753Z,7.60
2023-11-19T01:11:45.784Z,7.64
2023-11-19T01:14:12.494Z,7.68
2023-11-19T01:16:39.181Z,7.66
2023-11-19T01:19:15.291Z,7.65
2023-11-19T01:21:44.820Z,7.60
2023-11-19T01:24:13.546Z,7.56
2023-11-19T01:26:49.136Z,7.61
2023-11-19T01:29:16.067Z,7.62
2023-11-19T01:31:47.286Z,7.67
2023-11-19T01:34:13.962Z,7.75
2023-11-19T01:36:40.512Z,7.83
2023-11-19T01:39:07.423Z,7.83
2023-11-19T01:41:37.406Z,7.77
2023-11-19T01:44:04.535Z,7.80
2023-11-19T01:46:35.336Z,7.78
2023-11-19T01:49:03.634Z,7.86
2023-11-19T01:51:30.446Z,8.00
2023-11-19T01:53:58.806Z,8.08
2023-11-19T01:56:28.022Z,8.05
2023-11-19T01:58:56.191Z,8.04
2023-11-19T02:01:23.191Z,8.02
2023-11-19T02:03:50.136Z,8.02
2023-11-19T02:06:16.941Z,8.00
2023-11-19T02:08:44.699Z,7.98
2023-11-19T02:11:11.912Z,7.95
2023-11-19T02:13:39.504Z,7.99
2023-11-19T02:16:07.665Z,8.04
2023-11-19T02:18:34.340Z,8.02
2023-11-19T02:21:04.199Z,8.03
2023-11-19T02:23:31.462Z,8.04
2023-11-19T02:26:04.069Z,8.03
2023-11-19T02:28:30.862Z,8.04
2023-11-19T02:30:58.029Z,8.07
2023-11-19T02:33:26.027Z,8.14
2023-11-19T02:35:52.584Z,8.16
2023-11-19T02:38:19.116Z,8.13
2023-11-19T02:40:45.676Z,8.09
2023-11-19T02:43:12.270Z,8.11
2023-11-19T02:45:38.826Z,8.12
2023-11-19T02:48:07.345Z,8.13
2023-11-19T02:50:34.084Z,8.12
2023-11-19T02:53:00.906Z,8.12
2023-11-19T02:55:29.596Z,8.11
2023-11-19T02:57:57.529Z,8.10
2023-11-19T03:00:43.475Z,8.10
2023-11-19T03:03:22.108Z,8.14
2023-11-19T03:05:49.207Z,8.16
2023-11-19T03:10:46.495Z,8.16
2023-11-19T03:13:15.091Z,8.18
2023-11-19T03:15:42.114Z,8.27
2023-11-19T03:18:09.115Z,8.29
2023-11-19T03:20:35.980Z,8.30
2023-11-19T03:23:02.812Z,8.29
2023-11-19T03:25:34.879Z,8.36
2023-11-19T03:28:03.484Z,8.36
2023-11-19T03:30:34.600Z,8.36
2023-11-19T03:33:02.726Z,8.38
2023-11-19T03:35:30.099Z,8.44
2023-11-19T03:37:57.107Z,8.42
2023-11-19T03:40:23.866Z,8.45
2023-11-19T03:42:50.443Z,8.51
2023-11-19T03:45:17.073Z,8.49
2023-11-19T03:47:43.929Z,8.46
2023-11-19T03:50:10.615Z,8.47
2023-11-19T03:55:09.660Z,8.51
2023-11-19T03:57:36.544Z,8.55
2023-11-19T04:00:10.995Z,8.67
2023-11-19T04:02:38.583Z,8.77
2023-11-19T04:05:06.341Z,8.79
2023-11-19T04:07:33.051Z,8.79
2023-11-19T04:10:00.028Z,8.81
2023-11-19T04:12:26.728Z,8.82
2023-11-19T04:17:24.216Z,8.75
2023-11-19T04:19:50.997Z,8.74
2023-11-19T04:22:17.684Z,8.73
2023-11-19T04:24:46.652Z,8.73
2023-11-19T04:27:13.731Z,8.72
2023-11-19T04:29:40.284Z,8.71
2023-11-19T04:32:07.135Z,8.70
2023-11-19T04:34:33.688Z,8.69
2023-11-19T04:37:13.215Z,8.74
2023-11-19T04:39:40.502Z,8.79
2023-11-19T04:42:07.800Z,8.83
2023-11-19T04:44:34.660Z,8.84
2023-11-19T04:47:01.688Z,8.86
2023-11-19T04:49:29.015Z,8.90
2023-11-19T04:51:55.751Z,8.89
2023-11-19T04:54:22.431Z,8.94
2023-11-19T04:56:49.839Z,8.91
2023-11-19T04:59:16.454Z,8.98
2023-11-19T05:01:48.060Z,8.94
2023-11-19T05:04:14.882Z,8.89
2023-11-19T05:06:41.543Z,8.86
2023-11-19T05:09:13.143Z,8.85
2023-11-19T05:11:51.573Z,8.86
2023-11-19T05:14:19.856Z,8.89
2023-11-19T05:16:46.551Z,8.88
2023-11-19T05:19:13.220Z,8.89
2023-11-19T05:21:39.780Z,8.94
2023-11-19T05:24:06.586Z,8.99
2023-11-19T05:26:33.534Z,8.96
2023-11-19T05:29:00.257Z,8.94
2023-11-19T05:31:26.777Z,9.01
2023-11-19T05:33:53.415Z,8.97
2023-11-19T05:36:19.928Z,9.02
2023-11-19T05:38:46.516Z,9.01
2023-11-19T05:41:13.114Z,9.10
2023-11-19T05:43:41.634Z,9.16
2023-11-19T05:46:19.664Z,9.14
2023-11-19T05:48:47.954Z,9.32
2023-11-19T05:51:16.196Z,9.30
2023-11-19T05:53:42.877Z,9.36
2023-11-19T05:56:10.792Z,9.38
2023-11-19T05:58:38.437Z,9.34
2023-11-19T06:01:06.290Z,9.38
2023-11-19T06:03:33.015Z,9.37
2023-11-19T06:05:59.823Z,9.33
2023-11-19T06:08:28.269Z,9.35
2023-11-19T06:10:54.905Z,9.36
2023-11-19T06:13:25.114Z,9.38
2023-11-19T06:15:52.369Z,9.43
2023-11-19T06:18:21.330Z,9.42
2023-11-19T06:20:48.415Z,9.38
2023-11-19T06:23:14.973Z,9.35
2023-11-19T06:25:41.567Z,9.37
2023-11-19T06:28:08.532Z,9.38
2023-11-19T06:30:35.104Z,9.35
2023-11-19T06:33:01.820Z,9.44
2023-11-19T06:35:31.020Z,9.70
2023-11-19T06:37:57.658Z,9.78
2023-11-19T06:40:24.270Z,9.81
2023-11-19T06:42:53.485Z,9.82
2023-11-19T06:45:20.066Z,9.78
2023-11-19T06:47:46.745Z,9.79
2023-11-19T06:50:13.464Z,9.72
2023-11-19T06:52:41.101Z,9.70
2023-11-19T06:55:09.412Z,9.71
2023-11-19T06:57:36.538Z,9.68
2023-11-19T07:00:03.236Z,9.71
2023-11-19T07:02:29.867Z,9.72
2023-11-19T07:04:56.551Z,9.88
2023-11-19T07:07:23.091Z,9.87
2023-11-19T07:09:49.763Z,9.84
2023-11-19T07:12:16.595Z,9.91
2023-11-19T07:14:43.574Z,9.85
2023-11-19T07:17:11.380Z,9.91
2023-11-19T07:19:39.512Z,9.90
2023-11-19T07:22:07.354Z,9.84
2023-11-19T07:24:35.132Z,9.83
2023-11-19T07:27:02.871Z,9.86
2023-11-19T07:29:30.229Z,9.95
2023-11-19T07:31:57.881Z,9.90
2023-11-19T07:34:26.034Z,9.88
2023-11-19T07:36:53.305Z,9.88
2023-11-19T07:39:22.131Z,10.03
2023-11-19T07:41:48.745Z,10.03
2023-11-19T07:44:15.298Z,10.13
2023-11-19T07:46:43.466Z,10.19
2023-11-19T07:49:10.892Z,10.19
2023-11-19T07:51:37.619Z,10.22
2023-11-19T07:54:05.154Z,10.22
2023-11-19T07:56:31.833Z,10.29
2023-11-19T07:58:58.399Z,10.28
2023-11-19T08:01:25.012Z,10.36
2023-11-19T08:06:21.425Z,10.43
2023-11-19T08:08:49.149Z,10.53
2023-11-19T08:11:16.245Z,10.57
2023-11-19T08:13:43.153Z,10.65
2023-11-19T08:16:10.786Z,10.68
2023-11-19T08:18:37.528Z,10.78
2023-11-19T08:21:05.857Z,10.72
2023-11-19T08:23:32.549Z,10.77
2023-11-19T08:25:59.135Z,10.76
2023-11-19T08:28:25.625Z,10.68
2023-11-19T08:30:52.213Z,10.61
2023-11-19T08:33:18.733Z,10.52
2023-11-19T08:35:46.244Z,10.45
2023-11-19T08:38:12.783Z,10.40
2023-11-19T08:40:39.923Z,10.46
2023-11-19T08:43:07.532Z,10.50
2023-11-19T08:45:34.058Z,10.63
2023-11-19T08:48:00.706Z,10.80
2023-11-19T08:50:27.347Z,10.76
2023-11-19T08:52:53.868Z,10.71
2023-11-19T08:55:20.584Z,10.72
2023-11-19T08:57:47.475Z,10.78
2023-11-19T09:00:15.431Z,10.77
2023-11-19T09:02:42.083Z,10.69
2023-11-19T09:05:09.207Z,10.72
2023-11-19T09:07:36.423Z,10.78
2023-11-19T09:10:03.053Z,10.98
2023-11-19T09:12:29.717Z,11.13
2023-11-19T09:14:56.319Z,10.99
2023-11-19T09:17:22.889Z,10.92
2023-11-19T09:19:49.608Z,10.82
2023-11-19T09:22:16.127Z,10.84
2023-11-19T09:24:43.530Z,10.84
2023-11-19T09:27:10.061Z,10.84
2023-11-19T09:29:36.616Z,10.87
2023-11-19T09:32:06.005Z,10.90
2023-11-19T09:34:33.058Z,10.95
2023-11-19T09:36:59.609Z,10.96
2023-11-19T09:39:26.753Z,10.91
2023-11-19T09:41:53.579Z,10.87
2023-11-19T09:44:20.390Z,11.05
2023-11-19T09:46:47.669Z,11.21
2023-11-19T09:49:14.886Z,11.28
2023-11-19T09:51:41.882Z,11.19
2023-11-19T09:54:08.426Z,11.16
2023-11-19T09:56:38.678Z,11.15
2023-11-19T09:59:06.379Z,11.18
2023-11-19T10:01:33.225Z,11.23
2023-11-19T10:04:00.580Z,11.26
2023-11-19T10:06:28.075Z,11.39
2023-11-19T10:08:55.038Z,11.46
2023-11-19T10:11:21.548Z,11.55
2023-11-19T10:13:49.487Z,11.55
2023-11-19T10:16:16.487Z,11.77
2023-11-19T10:18:52.022Z,11.73
2023-11-19T10:21:19.988Z,11.63
2023-11-19T10:23:53.866Z,11.60
2023-11-19T10:26:21.542Z,11.59
2023-11-19T10:28:49.131Z,11.59
2023-11-19T10:31:16.756Z,11.74
2023-11-19T10:33:46.031Z,11.90
2023-11-19T10:36:13.437Z,11.90
2023-11-19T10:38:41.518Z,11.84
2023-11-19T10:41:08.524Z,11.72
2023-11-19T10:43:45.868Z,11.59
2023-11-19T10:46:14.061Z,11.49
2023-11-19T10:48:41.416Z,11.50
2023-11-19T10:51:09.316Z,11.43
2023-11-19T10:53:39.789Z,11.54
2023-11-19T10:56:12.763Z,11.53
2023-11-19T10:58:45.926Z,11.35
2023-11-19T11:01:22.111Z,11.22
2023-11-19T11:03:49.187Z,11.18
2023-11-19T11:06:15.877Z,11.05
2023-11-19T11:08:43.948Z,11.07
2023-11-19T11:11:14.364Z,11.18
2023-11-19T11:13:43.509Z,11.17
2023-11-19T11:16:10.430Z,11.10
2023-11-19T11:18:37.644Z,11.08
2023-11-19T11:21:09.729Z,11.13
2023-11-19T11:23:42.460Z,11.33
2023-11-19T11:26:22.046Z,11.38
2023-11-19T11:29:04.901Z,11.38
2023-11-19T11:31:55.134Z,11.47
2023-11-19T11:34:40.266Z,11.39
2023-11-19T11:37:19.210Z,11.52
2023-11-19T11:39:47.983Z,11.72
2023-11-19T11:42:23.722Z,11.78
2023-11-19T11:45:07.393Z,11.65
2023-11-19T11:47:43.322Z,11.58
2023-11-19T11:50:17.693Z,11.48
2023-11-19T11:52:59.722Z,11.26
2023-11-19T11:55:26.345Z,11.17
2023-11-19T11:57:53.292Z,11.13
2023-11-19T12:00:24.085Z,11.16
2023-11-19T12:02:51.054Z,11.26
2023-11-19T12:05:18.307Z,11.46
2023-11-19T12:08:01.202Z,11.56
2023-11-19T12:10:33.217Z,11.62
2023-11-19T12:13:01.205Z,11.71
2023-11-19T12:15:29.091Z,11.72
2023-11-19T12:17:56.638Z,11.65
2023-11-19T12:22:55.750Z,11.57
2023-11-19T12:25:23.010Z,11.55
2023-11-19T12:27:51.161Z,11.54
2023-11-19T12:30:25.748Z,11.51
2023-11-19T12:32:54.803Z,11.58
2023-11-19T12:35:21.564Z,11.56
2023-11-19T12:37:52.252Z,11.59
2023-11-19T12:40:21.754Z,11.62
2023-11-19T12:42:49.241Z,11.66
2023-11-19T12:45:17.371Z,11.65
2023-11-19T12:47:50.970Z,11.59
2023-11-19T12:50:20.139Z,11.54
2023-11-19T12:52:59.488Z,11.43
2023-11-19T12:55:29.363Z,11.38
2023-11-19T12:57:59.115Z,11.32
2023-11-19T13:00:27.461Z,11.29
2023-11-19T13:02:58.609Z,11.27
2023-11-19T13:05:25.659Z,11.21
2023-11-19T13:07:52.223Z,11.23
2023-11-19T13:10:21.014Z,11.25
2023-11-19T13:13:05.190Z,11.33
2023-11-19T13:15:33.249Z,11.34
2023-11-19T13:18:00.565Z,11.41
2023-11-19T13:20:27.442Z,11.39
2023-11-19T13:23:02.552Z,11.38
2023-11-19T13:25:30.044Z,11.39
2023-11-19T13:27:57.451Z,11.39
2023-11-19T13:32:56.597Z,11.38
2023-11-19T13:35:24.193Z,11.48
2023-11-19T13:37:50.862Z,11.43
2023-11-19T13:40:17.557Z,11.40
2023-11-19T13:42:45.236Z,11.40
2023-11-19T13:45:16.245Z,11.36
2023-11-19T13:47:45.156Z,11.33
2023-11-19T13:50:16.075Z,11.29
2023-11-19T13:52:45.998Z,11.23
2023-11-19T13:55:13.019Z,11.19
2023-11-19T13:57:40.718Z,11.16
2023-11-19T14:00:13.972Z,11.13
2023-11-19T14:02:41.962Z,11.11
2023-11-19T14:05:10.180Z,11.12
2023-11-19T14:07:36.685Z,11.13
2023-11-19T14:10:04.264Z,11.13
2023-11-19T14:12:31.490Z,11.15
2023-11-19T14:14:58.155Z,11.16
2023-11-19T14:17:26.204Z,11.15
2023-11-19T14:19:53.176Z,11.10
2023-11-19T14:22:19.728Z,11.11
2023-11-19T14:24:46.326Z,11.05
2023-11-19T14:27:13.235Z,11.03
2023-11-19T14:29:40.883Z,10.99
2023-11-19T14:32:07.579Z,10.96
2023-11-19T14:34:34.456Z,10.92
2023-11-19T14:37:01.860Z,10.85
2023-11-19T14:39:30.105Z,10.84
2023-11-19T14:41:59.440Z,10.84
2023-11-19T14:44:25.922Z,10.87
2023-11-19T14:46:52.607Z,10.78
2023-11-19T14:49:19.263Z,10.76
2023-11-19T14:51:47.658Z,10.64
2023-11-19T14:54:16.914Z,10.51
2023-11-19T14:56:43.863Z,10.46
2023-11-19T14:59:10.536Z,10.42
2023-11-19T15:01:37.387Z,10.38
2023-11-19T15:04:06.076Z,10.33
2023-11-19T15:06:35.191Z,10.30
2023-11-19T15:09:02.106Z,10.30
2023-11-19T15:11:28.682Z,10.27
2023-11-19T15:13:55.204Z,10.24
2023-11-19T15:16:27.134Z,10.27
2023-11-19T15:18:53.723Z,10.23
2023-11-19T15:21:20.305Z,10.16
2023-11-19T15:23:47.024Z,10.13
2023-11-19T15:26:13.722Z,10.11
2023-11-19T15:28:40.412Z,10.12
2023-11-19T15:31:07.125Z,10.18
2023-11-19T15:33:33.676Z,10.19
2023-11-19T15:36:01.607Z,10.18
2023-11-19T15:38:28.288Z,10.22
2023-11-19T15:40:55.770Z,10.25
2023-11-19T15:43:22.300Z,10.30
2023-11-19T15:45:48.894Z,10.32
2023-11-19T15:48:15.479Z,10.32
2023-11-19T15:50:42.294Z,10.27
2023-11-19T15:53:09.628Z,10.24
2023-11-19T15:55:37.049Z,10.24
2023-11-19T15:58:04.888Z,10.35
2023-11-19T16:00:32.719Z,10.44
2023-11-19T16:02:59.482Z,10.45
2023-11-19T16:05:26.107Z,10.39
2023-11-19T16:07:52.642Z,10.37
2023-11-19T16:10:23.832Z,10.41
2023-11-19T16:12:52.217Z,10.39
2023-11-19T16:15:36.652Z,10.40
2023-11-19T16:18:04.537Z,10.41
2023-11-19T16:20:35.038Z,10.47
2023-11-19T16:23:05.180Z,10.43
2023-11-19T16:25:31.947Z,10.47
2023-11-19T16:27:58.551Z,10.47
2023-11-19T16:30:25.262Z,10.47
2023-11-19T16:32:59.876Z,10.46
2023-11-19T16:35:27.294Z,10.42
2023-11-19T16:37:54.191Z,10.40
2023-11-19T16:40:22.659Z,10.48
2023-11-19T16:42:50.557Z,10.45
2023-11-19T16:45:17.254Z,10.45
2023-11-19T16:47:46.244Z,10.49
2023-11-19T16:50:13.435Z,10.55
2023-11-19T16:52:40.465Z,10.48
2023-11-19T16:55:12.554Z,10.41
2023-11-19T16:57:42.620Z,10.37
2023-11-19T17:00:11.781Z,10.32
2023-11-19T17:05:12.035Z,10.37
2023-11-19T17:07:39.020Z,10.37
2023-11-19T17:10:07.409Z,10.41
2023-11-19T17:12:34.047Z,10.48
2023-11-19T17:15:06.474Z,10.45
2023-11-19T17:17:37.102Z,10.50
2023-11-19T17:20:05.879Z,10.54
2023-11-19T17:22:38.074Z,10.53
2023-11-19T17:25:05.242Z,10.56
2023-11-19T17:27:31.868Z,10.60
2023-11-19T17:29:59.300Z,10.60
2023-11-19T17:32:26.504Z,10.60
2023-11-19T17:34:54.352Z,10.56
2023-11-19T17:37:20.906Z,10.58
2023-11-19T17:39:47.678Z,10.61
2023-11-19T17:42:14.629Z,10.57
2023-11-19T17:44:41.235Z,10.59
2023-11-19T17:47:08.099Z,10.56
2023-11-19T17:49:35.382Z,10.52
2023-11-19T17:52:02.677Z,10.47
2023-11-19T17:54:29.931Z,10.43
2023-11-19T17:56:58.015Z,10.36
2023-11-19T17:59:26.273Z,10.33
2023-11-19T18:01:57.295Z,10.31
2023-11-19T18:04:26.356Z,10.29
2023-11-19T18:06:53.624Z,10.23
2023-11-19T18:09:20.794Z,10.19
2023-11-19T18:11:48.269Z,10.12
2023-11-19T18:14:14.807Z,10.06
2023-11-19T18:16:41.435Z,10.02
2023-11-19T18:19:08.207Z,10.03
2023-11-19T18:21:34.837Z,10.00
2023-11-19T18:24:01.737Z,9.97
2023-11-19T18:28:57.894Z,9.98
2023-11-19T18:31:24.545Z,9.94
2023-11-19T18:33:51.239Z,9.96
2023-11-19T18:36:18.245Z,9.95
2023-11-19T18:38:45.033Z,9.97
2023-11-19T18:41:13.977Z,9.99
2023-11-19T18:43:41.586Z,9.99
2023-11-19T18:46:09.569Z,10.04
2023-11-19T18:48:37.157Z,10.03
2023-11-19T18:51:04.390Z,10.09
2023-11-19T18:53:31.721Z,10.13
2023-11-19T18:55:58.474Z,10.14
2023-11-19T18:58:25.413Z,10.10
2023-11-19T19:00:52.103Z,10.08
2023-11-19T19:03:23.243Z,10.09
2023-11-19T19:05:50.304Z,10.11
2023-11-19T19:08:18.077Z,10.19
2023-11-19T19:10:45.917Z,10.17
2023-11-19T19:13:12.937Z,10.19
2023-11-19T19:15:39.931Z,10.21
2023-11-19T19:18:07.149Z,10.21
2023-11-19T19:20:34.820Z,10.21
2023-11-19T19:23:02.067Z,10.18
2023-11-19T19:25:31.480Z,10.10
2023-11-19T19:28:22.528Z,10.03
2023-11-19T19:30:45.675Z,10.00
2023-11-19T19:33:15.547Z,9.95
2023-11-19T19:35:42.364Z,9.94
2023-11-19T19:38:10.571Z,9.93
2023-11-19T19:40:37.211Z,9.93
2023-11-19T19:43:05.360Z,9.89
2023-11-19T19:45:33.125Z,9.87
2023-11-19T19:48:00.111Z,9.85
2023-11-19T19:50:26.917Z,9.83
2023-11-19T19:52:53.568Z,9.79
2023-11-19T19:55:22.458Z,9.77
2023-11-19T19:57:49.313Z,9.76
2023-11-19T20:00:17.600Z,9.75
2023-11-19T20:02:45.670Z,9.78
2023-11-19T20:05:13.076Z,9.79
2023-11-19T20:07:44.242Z,9.79
2023-11-19T20:10:15.476Z,9.74
2023-11-19T20:12:42.717Z,9.74
2023-11-19T20:15:12.104Z,9.72
2023-11-19T20:17:38.934Z,9.73
2023-11-19T20:20:07.276Z,9.75
2023-11-19T20:22:35.295Z,9.79
2023-11-19T20:25:02.049Z,9.79
2023-11-19T20:27:29.229Z,9.86
2023-11-19T20:29:55.839Z,9.84
2023-11-19T20:32:22.408Z,9.82
2023-11-19T20:34:49.051Z,9.82
2023-11-19T20:37:15.554Z,9.81
2023-11-19T20:39:42.137Z,9.81
2023-11-19T20:42:08.633Z,9.83
2023-11-19T20:44:35.126Z,9.90
2023-11-19T20:47:05.862Z,9.89
2023-11-19T20:49:32.658Z,9.90
2023-11-19T20:51:59.416Z,9.92
2023-11-19T20:56:55.649Z,9.89
2023-11-19T20:59:22.179Z,9.89
2023-11-19T21:01:48.760Z,9.89
2023-11-19T21:04:15.433Z,9.88
2023-11-19T21:09:11.549Z,9.89
2023-11-19T21:11:38.542Z,9.91
2023-11-19T21:14:05.554Z,9.89
2023-11-19T21:16:32.130Z,9.90
2023-11-19T21:18:58.897Z,9.90
2023-11-19T21:21:25.578Z,9.91
2023-11-19T21:23:52.187Z,9.89
2023-11-19T21:26:18.810Z,9.87
2023-11-19T21:28:45.370Z,9.87
2023-11-19T21:31:13.635Z,9.88
2023-11-19T21:33:40.192Z,9.86
2023-11-19T21:36:07.114Z,9.86
2023-11-19T21:38:33.626Z,9.85
2023-11-19T21:41:01.392Z,9.84
2023-11-19T21:43:27.936Z,9.81
2023-11-19T21:45:55.155Z,9.79
2023-11-19T21:48:22.656Z,9.79
2023-11-19T21:50:49.232Z,9.77
2023-11-19T21:53:16.943Z,9.76
2023-11-19T21:55:46.748Z,9.76
2023-11-19T21:58:13.593Z,9.75
2023-11-19T22:00:40.393Z,9.73
2023-11-19T22:03:07.295Z,9.72
2023-11-19T22:05:33.950Z,9.72
2023-11-19T22:10:30.888Z,9.68
2023-11-19T22:12:58.165Z,9.70
2023-11-19T22:15:24.865Z,9.72
2023-11-19T22:17:54.156Z,9.72
2023-11-19T22:22:52.285Z,9.70
2023-11-19T22:25:20.424Z,9.70
2023-11-19T22:27:47.291Z,9.70
2023-11-19T22:30:14.509Z,9.72
2023-11-19T22:32:41.636Z,9.70
2023-11-19T22:35:08.842Z,9.69
2023-11-19T22:37:35.469Z,9.66
2023-11-19T22:40:01.986Z,9.66
2023-11-19T22:42:28.569Z,9.67
2023-11-19T22:44:55.107Z,9.71
2023-11-19T22:47:22.991Z,9.67
2023-11-19T22:49:49.467Z,9.64
2023-11-19T22:52:15.995Z,9.65
2023-11-19T22:54:43.869Z,9.65
2023-11-19T22:57:10.433Z,9.65
2023-11-19T22:59:36.892Z,9.65
2023-11-19T23:02:03.891Z,9.64
2023-11-19T23:04:30.524Z,9.63
2023-11-19T23:06:57.107Z,9.62
2023-11-19T23:09:23.694Z,9.61
2023-11-19T23:11:50.280Z,9.61
2023-11-19T23:14:16.846Z,9.62
2023-11-19T23:16:46.459Z,9.61
2023-11-19T23:19:13.117Z,9.61
2023-11-19T23:21:43.518Z,9.60
2023-11-19T23:24:11.088Z,9.60
2023-11-19T23:26:37.698Z,9.60
2023-11-19T23:29:13.657Z,9.58
2023-11-19T23:31:42.789Z,9.60
2023-11-19T23:34:09.460Z,9.60
2023-11-19T23:36:36.015Z,9.59
2023-11-19T23:39:02.590Z,9.60
2023-11-19T23:41:31.571Z,9.60
2023-11-19T23:43:58.902Z,9.62
2023-11-19T23:46:25.627Z,9.64
2023-11-19T23:51:23.803Z,9.65
2023-11-19T23:53:50.368Z,9.66
2023-11-19T23:56:16.909Z,9.67
2023-11-19T23:58:43.471Z,9.65
